sensor_id;sensor_type;location;lat;lon;timestamp;P1;durP1;ratioP1;P2;durP2;ratioP2
29954;SDS011;68448;51.188;6.868;2024-03-22T00:01:47;37.57;;;19.23;;
29954;SDS011;68448;51.188;6.868;2024-03-22T00:04:15;38.57;;;20.60;;
29954;SDS011;68448;51.188;6.868;2024-03-22T00:06:41;42.77;;;20.53;;
29954;SDS011;68448;51.188;6.868;2024-03-22T00:09:07;40.70;;;19.57;;
29954;SDS011;68448;51.188;6.868;2024-03-22T00:11:34;35.33;;;20.07;;
29954;SDS011;68448;51.188;6.868;2024-03-22T00:14:00;41.20;;;19.93;;
29954;SDS011;68448;51.188;6.868;2024-03-22T00:16:27;41.93;;;21.63;;
29954;SDS011;68448;51.188;6.868;2024-03-22T00:18:53;34.37;;;19.70;;
29954;SDS011;68448;51.188;6.868;2024-03-22T00:21:22;44.23;;;20.73;;
29954;SDS011;68448;51.188;6.868;2024-03-22T00:23:48;32.00;;;17.67;;
29954;SDS011;68448;51.188;6.868;2024-03-22T00:26:15;39.37;;;19.90;;
29954;SDS011;68448;51.188;6.868;2024-03-22T00:28:41;34.90;;;18.20;;
29954;SDS011;68448;51.188;6.868;2024-03-22T00:31:07;38.20;;;20.50;;
29954;SDS011;68448;51.188;6.868;2024-03-22T00:33:34;43.63;;;21.70;;
29954;SDS011;68448;51.188;6.868;2024-03-22T00:36:00;38.97;;;20.03;;
29954;SDS011;68448;51.188;6.868;2024-03-22T00:38:28;36.07;;;19.53;;
29954;SDS011;68448;51.188;6.868;2024-03-22T00:40:54;42.50;;;20.57;;
29954;SDS011;68448;51.188;6.868;2024-03-22T00:43:20;37.83;;;19.00;;
29954;SDS011;68448;51.188;6.868;2024-03-22T00:45:47;34.77;;;19.07;;
29954;SDS011;68448;51.188;6.868;2024-03-22T00:48:13;37.70;;;20.80;;
29954;SDS011;68448;51.188;6.868;2024-03-22T00:50:39;42.53;;;21.03;;
29954;SDS011;68448;51.188;6.868;2024-03-22T00:53:05;36.83;;;19.97;;
29954;SDS011;68448;51.188;6.868;2024-03-22T00:55:33;38.67;;;19.90;;
29954;SDS011;68448;51.188;6.868;2024-03-22T00:58:00;43.37;;;18.73;;
29954;SDS011;68448;51.188;6.868;2024-03-22T01:00:26;39.30;;;19.33;;
29954;SDS011;68448;51.188;6.868;2024-03-22T01:02:52;35.93;;;18.30;;
29954;SDS011;68448;51.188;6.868;2024-03-22T01:05:19;36.23;;;19.30;;
29954;SDS011;68448;51.188;6.868;2024-03-22T01:07:45;37.17;;;17.50;;
29954;SDS011;68448;51.188;6.868;2024-03-22T01:10:11;39.30;;;18.00;;
29954;SDS011;68448;51.188;6.868;2024-03-22T01:12:39;40.60;;;19.63;;
29954;SDS011;68448;51.188;6.868;2024-03-22T01:15:06;37.23;;;18.80;;
29954;SDS011;68448;51.188;6.868;2024-03-22T01:17:32;35.73;;;17.90;;
29954;SDS011;68448;51.188;6.868;2024-03-22T01:19:58;35.50;;;18.73;;
29954;SDS011;68448;51.188;6.868;2024-03-22T01:22:25;37.93;;;19.00;;
29954;SDS011;68448;51.188;6.868;2024-03-22T01:24:51;44.23;;;19.20;;
29954;SDS011;68448;51.188;6.868;2024-03-22T01:27:17;38.33;;;18.97;;
29954;SDS011;68448;51.188;6.868;2024-03-22T01:29:45;38.13;;;18.90;;
29954;SDS011;68448;51.188;6.868;2024-03-22T01:32:12;35.93;;;18.03;;
29954;SDS011;68448;51.188;6.868;2024-03-22T01:34:38;35.03;;;17.43;;
29954;SDS011;68448;51.188;6.868;2024-03-22T01:37:05;44.57;;;19.90;;
29954;SDS011;68448;51.188;6.868;2024-03-22T01:39:31;35.50;;;18.23;;
29954;SDS011;68448;51.188;6.868;2024-03-22T01:41:57;35.30;;;18.70;;
29954;SDS011;68448;51.188;6.868;2024-03-22T01:44:27;35.87;;;18.37;;
29954;SDS011;68448;51.188;6.868;2024-03-22T01:46:55;38.33;;;18.63;;
29954;SDS011;68448;51.188;6.868;2024-03-22T01:49:22;32.20;;;16.50;;
29954;SDS011;68448;51.188;6.868;2024-03-22T01:51:50;33.93;;;17.80;;
29954;SDS011;68448;51.188;6.868;2024-03-22T01:54:17;33.90;;;18.90;;
29954;SDS011;68448;51.188;6.868;2024-03-22T01:56:43;30.33;;;16.33;;
29954;SDS011;68448;51.188;6.868;2024-03-22T01:59:09;34.83;;;16.90;;
29954;SDS011;68448;51.188;6.868;2024-03-22T02:01:35;35.80;;;19.43;;
29954;SDS011;68448;51.188;6.868;2024-03-22T02:04:03;30.20;;;17.10;;
29954;SDS011;68448;51.188;6.868;2024-03-22T02:06:30;39.17;;;18.57;;
29954;SDS011;68448;51.188;6.868;2024-03-22T02:08:56;30.57;;;17.20;;
29954;SDS011;68448;51.188;6.868;2024-03-22T02:11:23;40.77;;;19.67;;
29954;SDS011;68448;51.188;6.868;2024-03-22T02:13:50;31.67;;;17.77;;
29954;SDS011;68448;51.188;6.868;2024-03-22T02:16:16;32.63;;;17.00;;
29954;SDS011;68448;51.188;6.868;2024-03-22T02:18:42;38.03;;;20.23;;
29954;SDS011;68448;51.188;6.868;2024-03-22T02:21:10;30.67;;;16.60;;
29954;SDS011;68448;51.188;6.868;2024-03-22T02:23:39;31.07;;;16.13;;
29954;SDS011;68448;51.188;6.868;2024-03-22T02:26:05;34.63;;;17.33;;
29954;SDS011;68448;51.188;6.868;2024-03-22T02:28:32;30.57;;;16.43;;
29954;SDS011;68448;51.188;6.868;2024-03-22T02:30:58;36.60;;;17.80;;
29954;SDS011;68448;51.188;6.868;2024-03-22T02:33:25;31.57;;;17.60;;
29954;SDS011;68448;51.188;6.868;2024-03-22T02:35:52;31.23;;;16.70;;
29954;SDS011;68448;51.188;6.868;2024-03-22T02:38:18;27.27;;;16.07;;
29954;SDS011;68448;51.188;6.868;2024-03-22T02:40:46;28.13;;;15.40;;
29954;SDS011;68448;51.188;6.868;2024-03-22T02:43:13;28.07;;;16.70;;
29954;SDS011;68448;51.188;6.868;2024-03-22T02:45:39;26.53;;;16.57;;
29954;SDS011;68448;51.188;6.868;2024-03-22T02:48:06;28.00;;;16.10;;
29954;SDS011;68448;51.188;6.868;2024-03-22T02:50:32;30.40;;;15.80;;
29954;SDS011;68448;51.188;6.868;2024-03-22T02:52:59;31.30;;;16.53;;
29954;SDS011;68448;51.188;6.868;2024-03-22T02:55:25;30.10;;;16.10;;
29954;SDS011;68448;51.188;6.868;2024-03-22T02:57:53;31.73;;;16.20;;
29954;SDS011;68448;51.188;6.868;2024-03-22T03:00:19;32.43;;;16.47;;
29954;SDS011;68448;51.188;6.868;2024-03-22T03:02:45;28.93;;;16.37;;
29954;SDS011;68448;51.188;6.868;2024-03-22T03:05:12;32.80;;;16.30;;
29954;SDS011;68448;51.188;6.868;2024-03-22T03:07:38;29.23;;;15.70;;
29954;SDS011;68448;51.188;6.868;2024-03-22T03:10:04;29.10;;;15.60;;
29954;SDS011;68448;51.188;6.868;2024-03-22T03:12:30;27.63;;;16.07;;
29954;SDS011;68448;51.188;6.868;2024-03-22T03:14:58;26.00;;;14.60;;
29954;SDS011;68448;51.188;6.868;2024-03-22T03:17:24;28.63;;;16.20;;
29954;SDS011;68448;51.188;6.868;2024-03-22T03:19:51;25.67;;;15.27;;
29954;SDS011;68448;51.188;6.868;2024-03-22T03:22:17;26.03;;;15.83;;
29954;SDS011;68448;51.188;6.868;2024-03-22T03:24:44;29.50;;;16.20;;
29954;SDS011;68448;51.188;6.868;2024-03-22T03:27:10;31.57;;;16.00;;
29954;SDS011;68448;51.188;6.868;2024-03-22T03:29:36;31.17;;;15.70;;
29954;SDS011;68448;51.188;6.868;2024-03-22T03:32:05;25.97;;;14.70;;
29954;SDS011;68448;51.188;6.868;2024-03-22T03:34:31;23.67;;;14.60;;
29954;SDS011;68448;51.188;6.868;2024-03-22T03:36:57;29.70;;;16.07;;
29954;SDS011;68448;51.188;6.868;2024-03-22T03:39:23;27.47;;;14.93;;
29954;SDS011;68448;51.188;6.868;2024-03-22T03:41:50;29.17;;;15.90;;
29954;SDS011;68448;51.188;6.868;2024-03-22T03:44:16;32.20;;;17.10;;
29954;SDS011;68448;51.188;6.868;2024-03-22T03:46:42;28.43;;;16.17;;
29954;SDS011;68448;51.188;6.868;2024-03-22T03:49:10;27.43;;;16.77;;
29954;SDS011;68448;51.188;6.868;2024-03-22T03:51:36;23.60;;;14.30;;
29954;SDS011;68448;51.188;6.868;2024-03-22T03:54:02;28.83;;;16.27;;
29954;SDS011;68448;51.188;6.868;2024-03-22T03:56:28;29.00;;;16.47;;
29954;SDS011;68448;51.188;6.868;2024-03-22T03:58:55;30.20;;;13.87;;
29954;SDS011;68448;51.188;6.868;2024-03-22T04:01:21;25.00;;;14.93;;
29954;SDS011;68448;51.188;6.868;2024-03-22T04:03:48;30.80;;;16.13;;
29954;SDS011;68448;51.188;6.868;2024-03-22T04:06:16;29.53;;;15.80;;
29954;SDS011;68448;51.188;6.868;2024-03-22T04:08:42;28.50;;;15.40;;
29954;SDS011;68448;51.188;6.868;2024-03-22T04:11:08;29.40;;;15.03;;
29954;SDS011;68448;51.188;6.868;2024-03-22T04:13:35;28.63;;;15.60;;
29954;SDS011;68448;51.188;6.868;2024-03-22T04:16:01;30.10;;;16.53;;
29954;SDS011;68448;51.188;6.868;2024-03-22T04:18:27;29.00;;;16.93;;
29954;SDS011;68448;51.188;6.868;2024-03-22T04:20:53;30.93;;;16.20;;
29954;SDS011;68448;51.188;6.868;2024-03-22T04:23:21;28.63;;;15.87;;
29954;SDS011;68448;51.188;6.868;2024-03-22T04:25:51;30.00;;;16.43;;
29954;SDS011;68448;51.188;6.868;2024-03-22T04:28:17;24.63;;;15.40;;
29954;SDS011;68448;51.188;6.868;2024-03-22T04:30:44;27.10;;;15.33;;
29954;SDS011;68448;51.188;6.868;2024-03-22T04:33:19;26.73;;;14.03;;
29954;SDS011;68448;51.188;6.868;2024-03-22T04:35:46;29.40;;;15.70;;
29954;SDS011;68448;51.188;6.868;2024-03-22T04:38:12;28.17;;;15.67;;
29954;SDS011;68448;51.188;6.868;2024-03-22T04:40:40;28.80;;;16.20;;
29954;SDS011;68448;51.188;6.868;2024-03-22T04:43:07;27.27;;;14.67;;
29954;SDS011;68448;51.188;6.868;2024-03-22T04:45:33;29.43;;;16.90;;
29954;SDS011;68448;51.188;6.868;2024-03-22T04:48:01;25.80;;;15.30;;
29954;SDS011;68448;51.188;6.868;2024-03-22T04:50:27;30.33;;;14.97;;
29954;SDS011;68448;51.188;6.868;2024-03-22T04:52:54;27.03;;;14.97;;
29954;SDS011;68448;51.188;6.868;2024-03-22T04:55:20;26.37;;;15.40;;
29954;SDS011;68448;51.188;6.868;2024-03-22T04:57:48;28.93;;;14.40;;
29954;SDS011;68448;51.188;6.868;2024-03-22T05:00:15;27.43;;;14.77;;
29954;SDS011;68448;51.188;6.868;2024-03-22T05:02:41;34.20;;;15.13;;
29954;SDS011;68448;51.188;6.868;2024-03-22T05:05:07;28.70;;;16.13;;
29954;SDS011;68448;51.188;6.868;2024-03-22T05:07:34;25.80;;;14.53;;
29954;SDS011;68448;51.188;6.868;2024-03-22T05:10:00;24.20;;;14.27;;
29954;SDS011;68448;51.188;6.868;2024-03-22T05:12:26;26.47;;;13.33;;
29954;SDS011;68448;51.188;6.868;2024-03-22T05:14:54;25.40;;;14.10;;
29954;SDS011;68448;51.188;6.868;2024-03-22T05:17:20;25.20;;;13.80;;
29954;SDS011;68448;51.188;6.868;2024-03-22T05:19:47;30.50;;;14.13;;
29954;SDS011;68448;51.188;6.868;2024-03-22T05:22:13;23.90;;;14.27;;
29954;SDS011;68448;51.188;6.868;2024-03-22T05:24:39;27.43;;;15.60;;
29954;SDS011;68448;51.188;6.868;2024-03-22T05:27:05;23.50;;;14.47;;
29954;SDS011;68448;51.188;6.868;2024-03-22T05:29:32;22.07;;;14.20;;
29954;SDS011;68448;51.188;6.868;2024-03-22T05:31:59;28.87;;;14.13;;
29954;SDS011;68448;51.188;6.868;2024-03-22T05:34:26;22.50;;;13.97;;
29954;SDS011;68448;51.188;6.868;2024-03-22T05:36:52;25.43;;;14.30;;
29954;SDS011;68448;51.188;6.868;2024-03-22T05:39:18;25.97;;;12.70;;
29954;SDS011;68448;51.188;6.868;2024-03-22T05:41:44;26.00;;;15.47;;
29954;SDS011;68448;51.188;6.868;2024-03-22T05:44:10;26.20;;;14.43;;
29954;SDS011;68448;51.188;6.868;2024-03-22T05:46:37;22.67;;;13.73;;
29954;SDS011;68448;51.188;6.868;2024-03-22T05:49:04;28.03;;;14.67;;
29954;SDS011;68448;51.188;6.868;2024-03-22T05:51:31;27.53;;;13.93;;
29954;SDS011;68448;51.188;6.868;2024-03-22T05:53:57;22.67;;;14.07;;
29954;SDS011;68448;51.188;6.868;2024-03-22T05:56:23;25.13;;;13.93;;
29954;SDS011;68448;51.188;6.868;2024-03-22T05:58:49;21.37;;;13.37;;
29954;SDS011;68448;51.188;6.868;2024-03-22T06:01:15;25.23;;;14.17;;
29954;SDS011;68448;51.188;6.868;2024-03-22T06:03:42;22.73;;;13.27;;
29954;SDS011;68448;51.188;6.868;2024-03-22T06:06:09;25.40;;;14.53;;
29954;SDS011;68448;51.188;6.868;2024-03-22T06:08:35;26.77;;;13.43;;
29954;SDS011;68448;51.188;6.868;2024-03-22T06:11:01;26.33;;;13.77;;
29954;SDS011;68448;51.188;6.868;2024-03-22T06:13:28;25.40;;;14.10;;
29954;SDS011;68448;51.188;6.868;2024-03-22T06:15:54;21.10;;;13.60;;
29954;SDS011;68448;51.188;6.868;2024-03-22T06:18:21;23.07;;;13.13;;
29954;SDS011;68448;51.188;6.868;2024-03-22T06:20:47;25.70;;;15.43;;
29954;SDS011;68448;51.188;6.868;2024-03-22T06:23:14;19.17;;;13.50;;
29954;SDS011;68448;51.188;6.868;2024-03-22T06:25:41;27.30;;;14.90;;
29954;SDS011;68448;51.188;6.868;2024-03-22T06:28:07;22.83;;;14.17;;
29954;SDS011;68448;51.188;6.868;2024-03-22T06:30:33;23.57;;;14.30;;
29954;SDS011;68448;51.188;6.868;2024-03-22T06:33:00;27.57;;;15.60;;
29954;SDS011;68448;51.188;6.868;2024-03-22T06:35:26;25.03;;;14.70;;
29954;SDS011;68448;51.188;6.868;2024-03-22T06:37:52;23.20;;;13.47;;
29954;SDS011;68448;51.188;6.868;2024-03-22T06:40:20;24.97;;;15.20;;
29954;SDS011;68448;51.188;6.868;2024-03-22T06:42:46;27.00;;;15.17;;
29954;SDS011;68448;51.188;6.868;2024-03-22T06:45:12;24.63;;;14.57;;
29954;SDS011;68448;51.188;6.868;2024-03-22T06:47:38;27.73;;;16.03;;
29954;SDS011;68448;51.188;6.868;2024-03-22T06:50:05;28.63;;;15.27;;
29954;SDS011;68448;51.188;6.868;2024-03-22T06:52:31;28.00;;;15.00;;
29954;SDS011;68448;51.188;6.868;2024-03-22T06:54:58;25.00;;;14.53;;
29954;SDS011;68448;51.188;6.868;2024-03-22T06:57:25;34.73;;;16.50;;
29954;SDS011;68448;51.188;6.868;2024-03-22T06:59:52;33.40;;;16.67;;
29954;SDS011;68448;51.188;6.868;2024-03-22T07:02:18;29.37;;;17.00;;
29954;SDS011;68448;51.188;6.868;2024-03-22T07:04:45;31.30;;;18.27;;
29954;SDS011;68448;51.188;6.868;2024-03-22T07:07:11;30.20;;;18.27;;
29954;SDS011;68448;51.188;6.868;2024-03-22T07:09:37;35.67;;;20.27;;
29954;SDS011;68448;51.188;6.868;2024-03-22T07:12:04;32.37;;;19.67;;
29954;SDS011;68448;51.188;6.868;2024-03-22T07:14:31;29.60;;;19.60;;
29954;SDS011;68448;51.188;6.868;2024-03-22T07:16:58;33.73;;;20.00;;
29954;SDS011;68448;51.188;6.868;2024-03-22T07:19:24;36.43;;;20.57;;
29954;SDS011;68448;51.188;6.868;2024-03-22T07:21:50;35.23;;;20.43;;
29954;SDS011;68448;51.188;6.868;2024-03-22T07:24:16;36.83;;;21.53;;
29954;SDS011;68448;51.188;6.868;2024-03-22T07:26:42;38.57;;;19.33;;
29954;SDS011;68448;51.188;6.868;2024-03-22T07:29:09;32.03;;;20.00;;
29954;SDS011;68448;51.188;6.868;2024-03-22T07:31:37;36.27;;;22.60;;
29954;SDS011;68448;51.188;6.868;2024-03-22T07:34:03;40.77;;;21.70;;
29954;SDS011;68448;51.188;6.868;2024-03-22T07:36:30;37.43;;;22.10;;
29954;SDS011;68448;51.188;6.868;2024-03-22T07:38:56;34.63;;;21.20;;
29954;SDS011;68448;51.188;6.868;2024-03-22T07:41:22;37.87;;;23.07;;
29954;SDS011;68448;51.188;6.868;2024-03-22T07:43:48;36.27;;;21.80;;
29954;SDS011;68448;51.188;6.868;2024-03-22T07:46:14;41.67;;;21.77;;
29954;SDS011;68448;51.188;6.868;2024-03-22T07:48:42;33.60;;;19.40;;
29954;SDS011;68448;51.188;6.868;2024-03-22T07:51:08;40.27;;;23.73;;
29954;SDS011;68448;51.188;6.868;2024-03-22T07:53:35;40.60;;;22.97;;
29954;SDS011;68448;51.188;6.868;2024-03-22T07:56:01;37.87;;;21.80;;
29954;SDS011;68448;51.188;6.868;2024-03-22T07:58:27;34.87;;;21.27;;
29954;SDS011;68448;51.188;6.868;2024-03-22T08:00:53;38.53;;;21.27;;
29954;SDS011;68448;51.188;6.868;2024-03-22T08:03:19;32.27;;;20.57;;
29954;SDS011;68448;51.188;6.868;2024-03-22T08:05:47;35.63;;;21.53;;
29954;SDS011;68448;51.188;6.868;2024-03-22T08:08:13;42.40;;;23.77;;
29954;SDS011;68448;51.188;6.868;2024-03-22T08:10:39;37.50;;;19.80;;
29954;SDS011;68448;51.188;6.868;2024-03-22T08:13:06;38.70;;;21.00;;
29954;SDS011;68448;51.188;6.868;2024-03-22T08:15:32;39.40;;;21.20;;
29954;SDS011;68448;51.188;6.868;2024-03-22T08:17:58;35.60;;;20.30;;
29954;SDS011;68448;51.188;6.868;2024-03-22T08:20:24;31.77;;;18.63;;
29954;SDS011;68448;51.188;6.868;2024-03-22T08:22:52;36.23;;;18.50;;
29954;SDS011;68448;51.188;6.868;2024-03-22T08:25:19;28.67;;;18.90;;
29954;SDS011;68448;51.188;6.868;2024-03-22T08:27:45;28.63;;;17.10;;
29954;SDS011;68448;51.188;6.868;2024-03-22T08:30:12;29.83;;;17.90;;
29954;SDS011;68448;51.188;6.868;2024-03-22T08:32:38;26.57;;;18.83;;
29954;SDS011;68448;51.188;6.868;2024-03-22T08:35:05;32.37;;;17.67;;
29954;SDS011;68448;51.188;6.868;2024-03-22T08:37:33;23.57;;;17.07;;
29954;SDS011;68448;51.188;6.868;2024-03-22T08:40:00;28.90;;;16.73;;
29954;SDS011;68448;51.188;6.868;2024-03-22T08:42:27;28.50;;;17.03;;
29954;SDS011;68448;51.188;6.868;2024-03-22T08:44:53;31.30;;;18.10;;
29954;SDS011;68448;51.188;6.868;2024-03-22T08:47:19;28.10;;;13.97;;
29954;SDS011;68448;51.188;6.868;2024-03-22T08:49:45;30.23;;;17.03;;
29954;SDS011;68448;51.188;6.868;2024-03-22T08:52:12;27.80;;;16.47;;
29954;SDS011;68448;51.188;6.868;2024-03-22T08:54:38;26.00;;;15.07;;
29954;SDS011;68448;51.188;6.868;2024-03-22T08:57:06;20.30;;;13.90;;
29954;SDS011;68448;51.188;6.868;2024-03-22T08:59:32;20.67;;;14.53;;
29954;SDS011;68448;51.188;6.868;2024-03-22T09:01:58;27.60;;;13.90;;
29954;SDS011;68448;51.188;6.868;2024-03-22T09:04:26;24.03;;;15.10;;
29954;SDS011;68448;51.188;6.868;2024-03-22T09:06:52;21.33;;;13.93;;
29954;SDS011;68448;51.188;6.868;2024-03-22T09:09:18;24.67;;;13.93;;
29954;SDS011;68448;51.188;6.868;2024-03-22T09:11:46;29.40;;;15.53;;
29954;SDS011;68448;51.188;6.868;2024-03-22T09:14:14;25.27;;;14.67;;
29954;SDS011;68448;51.188;6.868;2024-03-22T09:16:40;21.70;;;13.60;;
29954;SDS011;68448;51.188;6.868;2024-03-22T09:19:06;20.70;;;13.97;;
29954;SDS011;68448;51.188;6.868;2024-03-22T09:21:33;19.37;;;13.27;;
29954;SDS011;68448;51.188;6.868;2024-03-22T09:23:59;24.57;;;13.97;;
29954;SDS011;68448;51.188;6.868;2024-03-22T09:26:25;22.43;;;14.00;;
29954;SDS011;68448;51.188;6.868;2024-03-22T09:28:51;29.03;;;15.17;;
29954;SDS011;68448;51.188;6.868;2024-03-22T09:31:19;19.63;;;13.63;;
29954;SDS011;68448;51.188;6.868;2024-03-22T09:33:45;22.63;;;13.30;;
29954;SDS011;68448;51.188;6.868;2024-03-22T09:36:11;25.60;;;13.50;;
29954;SDS011;68448;51.188;6.868;2024-03-22T09:38:38;25.20;;;14.47;;
29954;SDS011;68448;51.188;6.868;2024-03-22T09:41:04;23.83;;;13.97;;
29954;SDS011;68448;51.188;6.868;2024-03-22T09:43:31;22.57;;;14.50;;
29954;SDS011;68448;51.188;6.868;2024-03-22T09:45:57;20.07;;;13.83;;
29954;SDS011;68448;51.188;6.868;2024-03-22T09:48:25;18.23;;;12.40;;
29954;SDS011;68448;51.188;6.868;2024-03-22T09:50:52;18.37;;;11.80;;
29954;SDS011;68448;51.188;6.868;2024-03-22T09:53:20;23.87;;;12.90;;
29954;SDS011;68448;51.188;6.868;2024-03-22T09:55:46;19.67;;;11.30;;
29954;SDS011;68448;51.188;6.868;2024-03-22T09:58:13;23.83;;;13.10;;
29954;SDS011;68448;51.188;6.868;2024-03-22T10:00:40;22.83;;;12.27;;
29954;SDS011;68448;51.188;6.868;2024-03-22T10:03:06;19.70;;;12.73;;
29954;SDS011;68448;51.188;6.868;2024-03-22T10:05:35;26.20;;;13.20;;
29954;SDS011;68448;51.188;6.868;2024-03-22T10:08:02;17.33;;;12.93;;
29954;SDS011;68448;51.188;6.868;2024-03-22T10:10:28;22.97;;;13.47;;
29954;SDS011;68448;51.188;6.868;2024-03-22T10:12:54;19.57;;;13.43;;
29954;SDS011;68448;51.188;6.868;2024-03-22T10:15:23;17.40;;;10.27;;
29954;SDS011;68448;51.188;6.868;2024-03-22T10:17:49;17.70;;;12.80;;
29954;SDS011;68448;51.188;6.868;2024-03-22T10:20:15;21.20;;;11.97;;
29954;SDS011;68448;51.188;6.868;2024-03-22T10:22:43;16.50;;;11.43;;
29954;SDS011;68448;51.188;6.868;2024-03-22T10:25:09;19.60;;;12.80;;
29954;SDS011;68448;51.188;6.868;2024-03-22T10:27:37;24.43;;;13.50;;
29954;SDS011;68448;51.188;6.868;2024-03-22T10:30:05;18.63;;;11.87;;
29954;SDS011;68448;51.188;6.868;2024-03-22T10:32:35;19.60;;;13.53;;
29954;SDS011;68448;51.188;6.868;2024-03-22T10:35:01;22.63;;;14.73;;
29954;SDS011;68448;51.188;6.868;2024-03-22T10:37:28;19.90;;;13.30;;
29954;SDS011;68448;51.188;6.868;2024-03-22T10:39:56;23.93;;;14.57;;
29954;SDS011;68448;51.188;6.868;2024-03-22T10:42:24;25.00;;;12.90;;
29954;SDS011;68448;51.188;6.868;2024-03-22T10:44:50;21.50;;;14.37;;
29954;SDS011;68448;51.188;6.868;2024-03-22T10:47:16;21.40;;;12.00;;
29954;SDS011;68448;51.188;6.868;2024-03-22T10:49:44;20.30;;;12.87;;
29954;SDS011;68448;51.188;6.868;2024-03-22T10:52:11;18.07;;;12.70;;
29954;SDS011;68448;51.188;6.868;2024-03-22T10:54:39;18.43;;;12.57;;
29954;SDS011;68448;51.188;6.868;2024-03-22T10:57:07;21.10;;;13.90;;
29954;SDS011;68448;51.188;6.868;2024-03-22T10:59:37;20.70;;;12.50;;
29954;SDS011;68448;51.188;6.868;2024-03-22T11:02:04;22.37;;;13.27;;
29954;SDS011;68448;51.188;6.868;2024-03-22T11:04:30;22.63;;;12.97;;
29954;SDS011;68448;51.188;6.868;2024-03-22T11:06:56;18.20;;;13.20;;
29954;SDS011;68448;51.188;6.868;2024-03-22T11:09:23;22.47;;;14.67;;
29954;SDS011;68448;51.188;6.868;2024-03-22T11:11:51;20.23;;;13.00;;
29954;SDS011;68448;51.188;6.868;2024-03-22T11:14:19;18.60;;;11.87;;
29954;SDS011;68448;51.188;6.868;2024-03-22T11:16:45;18.00;;;11.90;;
29954;SDS011;68448;51.188;6.868;2024-03-22T11:19:12;29.00;;;14.80;;
29954;SDS011;68448;51.188;6.868;2024-03-22T11:21:38;25.60;;;12.80;;
29954;SDS011;68448;51.188;6.868;2024-03-22T11:24:05;21.70;;;14.03;;
29954;SDS011;68448;51.188;6.868;2024-03-22T11:26:31;22.30;;;14.87;;
29954;SDS011;68448;51.188;6.868;2024-03-22T11:28:58;22.07;;;13.70;;
29954;SDS011;68448;51.188;6.868;2024-03-22T11:31:28;22.47;;;13.47;;
29954;SDS011;68448;51.188;6.868;2024-03-22T11:34:00;23.20;;;14.80;;
29954;SDS011;68448;51.188;6.868;2024-03-22T11:36:29;20.90;;;14.10;;
29954;SDS011;68448;51.188;6.868;2024-03-22T11:38:58;20.93;;;13.83;;
29954;SDS011;68448;51.188;6.868;2024-03-22T11:41:28;18.50;;;13.70;;
29954;SDS011;68448;51.188;6.868;2024-03-22T11:43:58;22.77;;;14.10;;
29954;SDS011;68448;51.188;6.868;2024-03-22T11:46:33;16.60;;;11.83;;
29954;SDS011;68448;51.188;6.868;2024-03-22T11:49:05;38.67;;;13.87;;
29954;SDS011;68448;51.188;6.868;2024-03-22T11:51:37;19.07;;;12.33;;
29954;SDS011;68448;51.188;6.868;2024-03-22T11:54:14;19.93;;;13.63;;
29954;SDS011;68448;51.188;6.868;2024-03-22T11:56:55;17.23;;;11.97;;
29954;SDS011;68448;51.188;6.868;2024-03-22T11:59:24;17.00;;;12.30;;
29954;SDS011;68448;51.188;6.868;2024-03-22T12:01:53;21.87;;;13.60;;
29954;SDS011;68448;51.188;6.868;2024-03-22T12:04:22;16.20;;;12.40;;
29954;SDS011;68448;51.188;6.868;2024-03-22T12:07:18;19.37;;;11.90;;
29954;SDS011;68448;51.188;6.868;2024-03-22T12:09:55;19.17;;;12.40;;
29954;SDS011;68448;51.188;6.868;2024-03-22T12:12:30;17.10;;;12.80;;
29954;SDS011;68448;51.188;6.868;2024-03-22T12:15:13;21.70;;;13.70;;
29954;SDS011;68448;51.188;6.868;2024-03-22T12:20:43;18.53;;;12.80;;
29954;SDS011;68448;51.188;6.868;2024-03-22T12:24:45;16.83;;;12.43;;
29954;SDS011;68448;51.188;6.868;2024-03-22T12:29:17;17.37;;;12.07;;
29954;SDS011;68448;51.188;6.868;2024-03-22T12:31:49;19.87;;;12.20;;
29954;SDS011;68448;51.188;6.868;2024-03-22T12:34:21;15.50;;;10.73;;
29954;SDS011;68448;51.188;6.868;2024-03-22T12:42:55;19.03;;;13.20;;
29954;SDS011;68448;51.188;6.868;2024-03-22T12:45:23;17.10;;;11.40;;
29954;SDS011;68448;51.188;6.868;2024-03-22T12:47:52;17.63;;;12.67;;
29954;SDS011;68448;51.188;6.868;2024-03-22T12:50:28;18.80;;;12.67;;
29954;SDS011;68448;51.188;6.868;2024-03-22T12:53:22;22.90;;;14.23;;
29954;SDS011;68448;51.188;6.868;2024-03-22T12:55:54;19.80;;;12.67;;
29954;SDS011;68448;51.188;6.868;2024-03-22T12:58:49;22.90;;;14.20;;
29954;SDS011;68448;51.188;6.868;2024-03-22T13:01:15;18.80;;;13.10;;
29954;SDS011;68448;51.188;6.868;2024-03-22T13:04:14;20.00;;;13.57;;
29954;SDS011;68448;51.188;6.868;2024-03-22T13:06:54;23.93;;;14.83;;
29954;SDS011;68448;51.188;6.868;2024-03-22T13:09:20;26.40;;;14.63;;
29954;SDS011;68448;51.188;6.868;2024-03-22T13:11:48;24.50;;;15.60;;
29954;SDS011;68448;51.188;6.868;2024-03-22T13:14:15;23.10;;;16.17;;
29954;SDS011;68448;51.188;6.868;2024-03-22T13:16:41;20.63;;;14.20;;
29954;SDS011;68448;51.188;6.868;2024-03-22T13:19:07;25.10;;;15.10;;
29954;SDS011;68448;51.188;6.868;2024-03-22T13:21:33;22.93;;;14.67;;
29954;SDS011;68448;51.188;6.868;2024-03-22T13:23:59;24.23;;;14.33;;
29954;SDS011;68448;51.188;6.868;2024-03-22T13:26:26;23.10;;;14.93;;
29954;SDS011;68448;51.188;6.868;2024-03-22T13:28:53;21.67;;;12.43;;
29954;SDS011;68448;51.188;6.868;2024-03-22T13:31:20;19.93;;;13.57;;
29954;SDS011;68448;51.188;6.868;2024-03-22T13:33:46;18.37;;;13.60;;
29954;SDS011;68448;51.188;6.868;2024-03-22T13:36:12;16.13;;;11.80;;
29954;SDS011;68448;51.188;6.868;2024-03-22T13:38:38;16.70;;;10.70;;
29954;SDS011;68448;51.188;6.868;2024-03-22T13:41:05;21.60;;;13.33;;
29954;SDS011;68448;51.188;6.868;2024-03-22T13:43:31;17.93;;;11.73;;
29954;SDS011;68448;51.188;6.868;2024-03-22T13:46:00;17.63;;;12.00;;
29954;SDS011;68448;51.188;6.868;2024-03-22T13:48:26;16.20;;;11.60;;
29954;SDS011;68448;51.188;6.868;2024-03-22T13:50:53;18.80;;;11.73;;
29954;SDS011;68448;51.188;6.868;2024-03-22T13:53:20;18.00;;;11.30;;
29954;SDS011;68448;51.188;6.868;2024-03-22T13:55:46;14.43;;;10.20;;
29954;SDS011;68448;51.188;6.868;2024-03-22T13:58:12;13.40;;;11.00;;
29954;SDS011;68448;51.188;6.868;2024-03-22T14:00:39;13.80;;;9.93;;
29954;SDS011;68448;51.188;6.868;2024-03-22T14:03:06;16.23;;;9.27;;
29954;SDS011;68448;51.188;6.868;2024-03-22T14:05:33;17.90;;;11.17;;
29954;SDS011;68448;51.188;6.868;2024-03-22T14:07:59;14.60;;;9.70;;
29954;SDS011;68448;51.188;6.868;2024-03-22T14:10:25;13.50;;;9.90;;
29954;SDS011;68448;51.188;6.868;2024-03-22T14:12:52;21.23;;;10.43;;
29954;SDS011;68448;51.188;6.868;2024-03-22T14:15:18;15.00;;;9.40;;
29954;SDS011;68448;51.188;6.868;2024-03-22T14:17:45;16.13;;;10.23;;
29954;SDS011;68448;51.188;6.868;2024-03-22T14:20:13;16.90;;;10.70;;
29954;SDS011;68448;51.188;6.868;2024-03-22T14:22:39;13.50;;;9.90;;
29954;SDS011;68448;51.188;6.868;2024-03-22T14:25:06;14.63;;;9.60;;
29954;SDS011;68448;51.188;6.868;2024-03-22T14:27:32;16.77;;;10.23;;
29954;SDS011;68448;51.188;6.868;2024-03-22T14:29:59;14.80;;;9.33;;
29954;SDS011;68448;51.188;6.868;2024-03-22T14:32:25;17.67;;;11.47;;
29954;SDS011;68448;51.188;6.868;2024-03-22T14:34:51;17.60;;;10.63;;